UPSVAC Airport Information Service

Katowice International Airport

ICAO: EPKT Country: Poland
Latitude: 50.4743 Longitude: 19.08
Latest Arrival : ABR1482 (EDDK-EPKT) Latest Departure : UPSJUMP (EPKT-KPHL)


WX CaptureLIVE
Data provided by noaa.gov | Fetched at 13:08:42

METAR : EPKT 251230Z 31009KT 280V340 4800 -RASN BR OVC003 M00/M01 Q0999

TAF : EPKT 251130Z 2512/2612 32010KT 7000 BKN012 TEMPO 2512/2521 4000 -SN BR OVC003 PROB40 TEMPO 2514/2518 31015G25KT 2000 DRSN BECMG 2518/2521 BKN015 TEMPO 2521/2606 4000 -SN BR BKN007 PROB40 TEMPO 2601/2612 29015G25KT 2000 SN DRSN BKN004


Runway Data for EPKT
Data provided by openaviationdata.com

Runway ID Mag Var Hdg Length Elevation Surface ILS Freq ILS Id ILS Slope
9 4 86° 9164 ft 994 ft Concrete -- -- --
27 4 266° 9164 ft 994 ft Concrete 109.9 KAT 3

Katowice International Airport, Poland
Use only for reference purposes



Not for navigational purposes.